Saint-Basile, Canada
Current Conditions -  °F | °C
As of 3:00 AM on Thursday 27 Nov 2014 (Local Time) from CYOY Reporting Station
Overcast Overcast  
Wind Chill: 16°   Ceiling: 9400
Heat Index: 27°   Visibility: 9mi
Dew Point: 16°   Wind: 12mph
Humidity: 64%   Direction: 10°N
Pressure: 29.96"   Gusts: NA
Location:  46.75°N, 71.82°W
Report Text: CYOY 270800Z AUTO 01010KT 9SM FEW076 OVC094 M03/M09 A2996 RMKSLP156
Loading
Personal Weather Stations






























Interactive Weather Map New forecast layout! Learn more

10-Day Weather Forecast

Advertisements
Track Severe Weather on mobile